X  Fermer Données météorologiques d'aviation de Metar     EBBR Brussels Airport
Température
8°C Température
7°C Point de rosée
93% Humidité



Vitesse
10 KM/H
6 MPH
3 M/S
5 KTS



100°
Est
Conditions actuelles

Pluie Pluie
Pression 1008.92 (hPa) - 29.79 (inHg)
Visibilité 6.2 (mile) - 10 (km)
Aéroport
Code de l'aéroport EBBR

Emplacement: Brussels Airport
Distance: 14 (km)

Metar:
EBBR 101450Z 10005KT 9999 RA SCT007 BKN014 08/07 Q1009 TEMPO 4000 RA BKN008

Temps: 2021-04-10 16:50 CEST